createdAt,value
2023-05-05T00:00:18.767Z,1228.00
2023-05-05T00:01:18.753Z,1224.00
2023-05-05T00:02:18.779Z,1227.00
2023-05-05T00:03:18.769Z,1216.00
2023-05-05T00:04:18.794Z,1240.00
2023-05-05T00:05:18.716Z,1222.00
2023-05-05T00:06:18.690Z,1212.00
2023-05-05T00:07:18.680Z,1221.00
2023-05-05T00:08:18.665Z,1221.00
2023-05-05T00:09:18.670Z,1213.00
2023-05-05T00:10:18.664Z,1237.00
2023-05-05T00:11:18.638Z,1221.00
2023-05-05T00:12:18.642Z,1222.00
2023-05-05T00:13:18.632Z,1209.00
2023-05-05T00:14:18.616Z,1225.00
2023-05-05T00:15:18.607Z,1217.00
2023-05-05T00:16:18.628Z,1194.00
2023-05-05T00:17:18.769Z,1209.00
2023-05-05T00:18:18.629Z,1215.00
2023-05-05T00:19:18.613Z,1215.00
2023-05-05T00:20:18.592Z,1214.00
2023-05-05T00:21:18.589Z,1222.00
2023-05-05T00:22:18.581Z,1197.00
2023-05-05T00:23:18.563Z,1215.00
2023-05-05T00:24:18.544Z,1200.00
2023-05-05T00:25:18.528Z,1198.00
2023-05-05T00:26:18.529Z,1200.00
2023-05-05T00:27:18.510Z,1190.00
2023-05-05T00:28:18.505Z,1193.00
2023-05-05T00:29:18.484Z,1193.00
2023-05-05T00:30:18.469Z,1191.00
2023-05-05T00:31:18.475Z,1202.00
2023-05-05T00:32:18.450Z,1182.00
2023-05-05T00:33:18.437Z,1188.00
2023-05-05T00:34:18.416Z,1181.00
2023-05-05T00:35:18.411Z,1176.00
2023-05-05T00:36:18.377Z,1180.00
2023-05-05T00:37:18.390Z,1182.00
2023-05-05T00:38:18.363Z,1175.00
2023-05-05T00:39:18.355Z,1171.00
2023-05-05T00:40:18.384Z,1176.00
2023-05-05T00:41:18.340Z,1180.00
2023-05-05T00:42:18.319Z,1166.00
2023-05-05T00:43:18.337Z,1162.00
2023-05-05T00:44:18.325Z,1161.00
2023-05-05T00:45:18.348Z,1152.00
2023-05-05T00:46:18.328Z,1159.00
2023-05-05T00:47:18.302Z,1169.00
2023-05-05T00:48:18.284Z,1156.00
2023-05-05T00:49:18.323Z,1176.00
2023-05-05T00:50:18.260Z,1152.00
2023-05-05T00:51:18.260Z,1159.00
2023-05-05T00:52:18.299Z,1149.00
2023-05-05T00:53:18.240Z,1137.00
2023-05-05T00:54:18.224Z,1163.00
2023-05-05T00:55:18.215Z,1160.00
2023-05-05T00:56:18.214Z,1149.00
2023-05-05T00:57:18.206Z,1146.00
2023-05-05T00:58:18.195Z,1141.00
2023-05-05T00:59:18.193Z,1143.00
2023-05-05T01:00:18.209Z,1126.00
2023-05-05T01:01:18.219Z,1139.00
2023-05-05T01:02:18.182Z,1139.00
2023-05-05T01:03:18.260Z,1132.00
2023-05-05T01:04:18.156Z,1135.00
2023-05-05T01:05:18.152Z,1129.00
2023-05-05T01:06:18.143Z,1135.00
2023-05-05T01:07:18.129Z,1135.00
2023-05-05T01:08:18.124Z,1124.00
2023-05-05T01:09:18.104Z,1123.00
2023-05-05T01:10:20.479Z,1111.00
2023-05-05T01:11:18.090Z,1125.00
2023-05-05T01:12:18.075Z,1126.00
2023-05-05T01:13:18.055Z,1113.00
2023-05-05T01:14:18.047Z,1121.00
2023-05-05T01:15:18.028Z,1114.00
2023-05-05T01:16:18.038Z,1110.00
2023-05-05T01:17:17.997Z,1110.00
2023-05-05T01:18:17.976Z,1108.00
2023-05-05T01:19:17.967Z,1130.00
2023-05-05T01:20:17.977Z,1110.00
2023-05-05T01:21:17.948Z,1115.00
2023-05-05T01:22:17.951Z,1106.00
2023-05-05T01:23:17.936Z,1114.00
2023-05-05T01:24:17.974Z,1117.00
2023-05-05T01:25:17.903Z,1102.00
2023-05-05T01:26:17.879Z,1093.00
2023-05-05T01:27:17.871Z,1099.00
2023-05-05T01:28:17.861Z,1093.00
2023-05-05T01:29:17.853Z,1095.00
2023-05-05T01:30:17.872Z,1097.00
2023-05-05T01:31:17.855Z,1094.00
2023-05-05T01:32:17.827Z,1100.00
2023-05-05T01:33:17.802Z,1084.00
2023-05-05T01:34:17.786Z,1103.00
2023-05-05T01:35:17.782Z,1097.00
2023-05-05T01:36:17.769Z,1084.00
2023-05-05T01:37:17.752Z,1097.00
2023-05-05T01:38:17.733Z,1094.00
2023-05-05T01:39:17.721Z,1095.00
2023-05-05T01:40:17.721Z,1086.00
2023-05-05T01:41:17.747Z,1078.00
2023-05-05T01:42:17.690Z,1090.00
2023-05-05T01:43:17.687Z,1086.00
2023-05-05T01:44:17.673Z,1083.00
2023-05-05T01:45:17.656Z,1088.00
2023-05-05T01:46:17.716Z,1081.00
2023-05-05T01:47:17.675Z,1082.00
2023-05-05T01:48:17.627Z,1089.00
2023-05-05T01:49:17.669Z,1080.00
2023-05-05T01:50:17.594Z,1068.00
2023-05-05T01:51:17.586Z,1085.00
2023-05-05T01:52:17.588Z,1066.00
2023-05-05T01:53:17.618Z,1083.00
2023-05-05T01:54:17.545Z,1071.00
2023-05-05T01:55:17.507Z,1068.00
2023-05-05T01:56:17.504Z,1063.00
2023-05-05T01:57:17.488Z,1058.00
2023-05-05T01:58:17.560Z,1053.00
2023-05-05T01:59:17.465Z,1055.00
2023-05-05T02:00:17.445Z,1054.00
2023-05-05T02:01:17.463Z,1052.00
2023-05-05T02:02:17.416Z,1058.00
2023-05-05T02:03:17.514Z,1056.00
2023-05-05T02:04:17.377Z,1042.00
2023-05-05T02:05:17.384Z,1046.00
2023-05-05T02:06:17.358Z,1043.00
2023-05-05T02:07:17.327Z,1050.00
2023-05-05T02:08:17.337Z,1035.00
2023-05-05T02:09:17.303Z,1048.00
2023-05-05T02:10:17.280Z,1044.00
2023-05-05T02:11:17.274Z,1027.00
2023-05-05T02:12:17.256Z,1043.00
2023-05-05T02:13:17.350Z,1024.00
2023-05-05T02:14:17.218Z,1040.00
2023-05-05T02:15:17.218Z,1041.00
2023-05-05T02:16:17.237Z,1047.00
2023-05-05T02:17:17.161Z,1029.00
2023-05-05T02:18:17.155Z,1032.00
2023-05-05T02:19:17.127Z,1033.00
2023-05-05T02:20:17.098Z,1030.00
2023-05-05T02:21:17.082Z,1041.00
2023-05-05T02:22:17.067Z,1029.00
2023-05-05T02:23:17.051Z,1023.00
2023-05-05T02:24:17.036Z,1035.00
2023-05-05T02:25:17.005Z,1023.00
2023-05-05T02:26:16.992Z,1031.00
2023-05-05T02:27:16.960Z,1017.00
2023-05-05T02:28:16.957Z,1033.00
2023-05-05T02:29:16.954Z,1020.00
2023-05-05T02:30:16.949Z,1009.00
2023-05-05T02:31:16.922Z,1031.00
2023-05-05T02:32:16.889Z,1013.00
2023-05-05T02:33:16.868Z,1004.00
2023-05-05T02:34:16.878Z,1025.00
2023-05-05T02:35:16.844Z,1009.00
2023-05-05T02:36:16.844Z,1014.00
2023-05-05T02:37:16.822Z,1006.00
2023-05-05T02:38:16.794Z,1009.00
2023-05-05T02:39:16.775Z,1017.00
2023-05-05T02:40:16.759Z,1020.00
2023-05-05T02:41:16.796Z,994.00
2023-05-05T02:42:16.712Z,1020.00
2023-05-05T02:43:16.801Z,1016.00
2023-05-05T02:44:16.686Z,1008.00
2023-05-05T02:45:16.645Z,1006.00
2023-05-05T02:46:16.662Z,1005.00
2023-05-05T02:47:16.597Z,998.00
2023-05-05T02:48:16.599Z,993.00
2023-05-05T02:49:16.551Z,1002.00
2023-05-05T02:50:16.546Z,982.00
2023-05-05T02:51:16.527Z,1002.00
2023-05-05T02:52:16.499Z,1002.00
2023-05-05T02:53:16.485Z,995.00
2023-05-05T02:54:16.466Z,990.00
2023-05-05T02:55:16.456Z,998.00
2023-05-05T02:56:16.427Z,1005.00
2023-05-05T02:57:16.419Z,996.00
2023-05-05T02:58:16.397Z,999.00
2023-05-05T02:59:16.611Z,990.00
2023-05-05T03:00:16.353Z,983.00
2023-05-05T03:01:16.369Z,992.00
2023-05-05T03:02:16.377Z,983.00
2023-05-05T03:03:16.432Z,986.00
2023-05-05T03:04:16.287Z,973.00
2023-05-05T03:05:16.260Z,966.00
2023-05-05T03:06:16.281Z,972.00
2023-05-05T03:07:16.242Z,987.00
2023-05-05T03:08:16.227Z,971.00
2023-05-05T03:09:16.213Z,980.00
2023-05-05T03:10:16.228Z,976.00
2023-05-05T03:11:16.184Z,964.00
2023-05-05T03:12:16.186Z,970.00
2023-05-05T03:13:16.174Z,973.00
2023-05-05T03:14:16.180Z,962.00
2023-05-05T03:15:16.143Z,974.00
2023-05-05T03:16:16.140Z,962.00
2023-05-05T03:17:16.096Z,970.00
2023-05-05T03:18:16.075Z,966.00
2023-05-05T03:19:16.058Z,967.00
2023-05-05T03:20:16.031Z,970.00
2023-05-05T03:21:16.034Z,964.00
2023-05-05T03:22:16.017Z,949.00
2023-05-05T03:23:15.984Z,954.00
2023-05-05T03:24:15.969Z,970.00
2023-05-05T03:25:15.954Z,964.00
2023-05-05T03:26:15.917Z,952.00
2023-05-05T03:27:15.907Z,950.00
2023-05-05T03:28:15.914Z,943.00
2023-05-05T03:29:15.884Z,948.00
2023-05-05T03:30:15.864Z,961.00
2023-05-05T03:31:15.843Z,952.00
2023-05-05T03:32:15.846Z,952.00
2023-05-05T03:33:15.814Z,940.00
2023-05-05T03:34:15.798Z,953.00
2023-05-05T03:35:15.783Z,942.00
2023-05-05T03:36:15.769Z,953.00
2023-05-05T03:37:15.749Z,948.00
2023-05-05T03:38:15.753Z,954.00
2023-05-05T03:39:15.730Z,950.00
2023-05-05T03:40:15.729Z,944.00
2023-05-05T03:41:15.699Z,947.00
2023-05-05T03:42:15.691Z,942.00
2023-05-05T03:43:15.665Z,946.00
2023-05-05T03:44:15.664Z,951.00
2023-05-05T03:45:15.630Z,937.00
2023-05-05T03:46:15.638Z,950.00
2023-05-05T03:47:15.601Z,945.00
2023-05-05T03:48:15.599Z,937.00
2023-05-05T03:49:15.584Z,939.00
2023-05-05T03:50:15.559Z,933.00
2023-05-05T03:51:15.585Z,945.00
2023-05-05T03:52:15.531Z,929.00
2023-05-05T03:53:15.517Z,927.00
2023-05-05T03:54:15.495Z,937.00
2023-05-05T03:55:15.492Z,938.00
2023-05-05T03:56:15.471Z,945.00
2023-05-05T03:57:15.467Z,943.00
2023-05-05T03:58:15.436Z,939.00
2023-05-05T03:59:15.419Z,922.00
2023-05-05T04:00:15.421Z,923.00
2023-05-05T04:01:15.387Z,931.00
2023-05-05T04:02:17.017Z,922.00
2023-05-05T04:03:15.580Z,922.00
2023-05-05T04:04:15.380Z,924.00
2023-05-05T04:05:15.348Z,929.00
2023-05-05T04:06:15.318Z,931.00
2023-05-05T04:07:15.301Z,928.00
2023-05-05T04:08:15.286Z,932.00
2023-05-05T04:09:15.266Z,925.00
2023-05-05T04:10:15.251Z,920.00
2023-05-05T04:11:15.240Z,919.00
2023-05-05T04:12:15.229Z,919.00
2023-05-05T04:13:15.293Z,910.00
2023-05-05T04:14:15.184Z,923.00
2023-05-05T04:15:15.177Z,916.00
2023-05-05T04:16:15.178Z,917.00
2023-05-05T04:17:15.139Z,916.00
2023-05-05T04:18:15.127Z,927.00
2023-05-05T04:19:15.105Z,912.00
2023-05-05T04:20:15.096Z,910.00
2023-05-05T04:21:15.085Z,918.00
2023-05-05T04:22:15.059Z,903.00
2023-05-05T04:23:15.056Z,925.00
2023-05-05T04:24:15.024Z,913.00
2023-05-05T04:25:15.010Z,905.00
2023-05-05T04:26:14.992Z,890.00
2023-05-05T04:27:14.965Z,899.00
2023-05-05T04:28:14.956Z,902.00
2023-05-05T04:29:14.930Z,897.00
2023-05-05T04:30:14.929Z,897.00
2023-05-05T04:31:14.937Z,902.00
2023-05-05T04:32:14.903Z,882.00
2023-05-05T04:33:14.873Z,887.00
2023-05-05T04:34:14.868Z,889.00
2023-05-05T04:35:14.837Z,886.00
2023-05-05T04:36:14.833Z,891.00
2023-05-05T04:37:14.802Z,888.00
2023-05-05T04:38:14.789Z,875.00
2023-05-05T04:39:14.798Z,889.00
2023-05-05T04:40:14.824Z,878.00
2023-05-05T04:41:14.730Z,879.00
2023-05-05T04:42:14.706Z,877.00
2023-05-05T04:43:14.712Z,887.00
2023-05-05T04:44:14.664Z,869.00
2023-05-05T04:45:14.657Z,871.00
2023-05-05T04:46:14.665Z,884.00
2023-05-05T04:47:14.862Z,874.00
2023-05-05T04:48:14.584Z,867.00
2023-05-05T04:49:14.574Z,875.00
2023-05-05T04:50:14.541Z,880.00
2023-05-05T04:51:14.519Z,876.00
2023-05-05T04:52:14.495Z,876.00
2023-05-05T04:53:14.489Z,872.00
2023-05-05T04:54:14.465Z,864.00
2023-05-05T04:55:14.450Z,869.00
2023-05-05T04:56:14.443Z,857.00
2023-05-05T04:57:14.424Z,865.00
2023-05-05T04:58:14.401Z,871.00
2023-05-05T04:59:14.396Z,863.00
2023-05-05T05:00:14.383Z,853.00
2023-05-05T05:01:14.363Z,869.00
2023-05-05T05:02:14.427Z,867.00
2023-05-05T05:03:14.412Z,855.00
2023-05-05T05:04:14.296Z,852.00
2023-05-05T05:05:14.275Z,851.00
2023-05-05T05:06:14.260Z,867.00
2023-05-05T05:07:14.238Z,845.00
2023-05-05T05:08:14.221Z,851.00
2023-05-05T05:09:14.213Z,853.00
2023-05-05T05:10:14.196Z,851.00
2023-05-05T05:11:14.172Z,851.00
2023-05-05T05:12:14.142Z,851.00
2023-05-05T05:13:14.155Z,852.00
2023-05-05T05:14:14.098Z,855.00
2023-05-05T05:15:14.078Z,853.00
2023-05-05T05:16:14.116Z,849.00
2023-05-05T05:17:14.051Z,826.00
2023-05-05T05:18:14.050Z,816.00
2023-05-05T05:19:14.028Z,720.00
2023-05-05T05:20:14.033Z,650.00
2023-05-05T05:21:14.799Z,639.00
2023-05-05T05:22:13.988Z,634.00
2023-05-05T05:23:13.964Z,625.00
2023-05-05T05:24:13.960Z,620.00
2023-05-05T05:25:13.944Z,627.00
2023-05-05T05:26:13.948Z,646.00
2023-05-05T05:27:13.942Z,644.00
2023-05-05T05:28:13.897Z,582.00
2023-05-05T05:29:13.895Z,579.00
2023-05-05T05:30:13.876Z,583.00
2023-05-05T05:31:13.849Z,580.00
2023-05-05T05:32:13.902Z,561.00
2023-05-05T05:33:13.823Z,512.00
2023-05-05T05:34:14.820Z,461.00
2023-05-05T05:35:13.809Z,400.00
2023-05-05T05:36:13.807Z,400.00
2023-05-05T05:37:13.811Z,400.00
2023-05-05T05:38:13.800Z,400.00
2023-05-05T05:39:13.791Z,400.00
2023-05-05T05:40:13.793Z,400.00
2023-05-05T05:41:13.787Z,400.00
2023-05-05T05:42:13.792Z,400.00
2023-05-05T05:43:13.810Z,400.00
2023-05-05T05:44:13.822Z,400.00
2023-05-05T05:45:13.806Z,400.00
2023-05-05T05:46:13.862Z,400.00
2023-05-05T05:47:13.805Z,400.00
2023-05-05T05:48:13.811Z,400.00
2023-05-05T05:49:13.816Z,421.00
2023-05-05T05:50:13.823Z,464.00
2023-05-05T05:51:13.800Z,500.00
2023-05-05T05:52:13.833Z,509.00
2023-05-05T05:53:13.837Z,500.00
2023-05-05T05:54:13.807Z,503.00
2023-05-05T05:55:13.816Z,505.00
2023-05-05T05:56:13.863Z,504.00
2023-05-05T05:57:13.809Z,509.00
2023-05-05T05:58:13.827Z,513.00
2023-05-05T05:59:13.803Z,508.00
2023-05-05T06:00:13.796Z,505.00
2023-05-05T06:01:13.802Z,510.00
2023-05-05T06:02:13.847Z,500.00
2023-05-05T06:03:13.971Z,504.00
2023-05-05T06:04:13.828Z,502.00
2023-05-05T06:05:13.787Z,502.00
2023-05-05T06:06:13.801Z,498.00
2023-05-05T06:07:13.785Z,511.00
2023-05-05T06:08:13.778Z,501.00
2023-05-05T06:09:13.767Z,519.00
2023-05-05T06:10:26.500Z,519.00
2023-05-05T06:11:14.769Z,500.00
2023-05-05T06:12:13.761Z,490.00
2023-05-05T06:13:13.860Z,507.00
2023-05-05T06:14:13.765Z,503.00
2023-05-05T06:15:13.759Z,461.00
2023-05-05T06:16:13.806Z,504.00
2023-05-05T06:17:13.754Z,507.00
2023-05-05T06:18:13.773Z,508.00
2023-05-05T06:19:13.747Z,509.00
2023-05-05T06:20:13.790Z,501.00
2023-05-05T06:21:13.747Z,514.00
2023-05-05T06:22:13.730Z,509.00
2023-05-05T06:23:13.764Z,500.00
2023-05-05T06:24:13.860Z,516.00
2023-05-05T06:25:13.709Z,500.00
2023-05-05T06:26:13.705Z,573.00
2023-05-05T06:27:13.689Z,588.00
2023-05-05T06:28:13.721Z,627.00
2023-05-05T06:29:13.749Z,656.00
2023-05-05T06:30:13.785Z,694.00
2023-05-05T06:31:13.885Z,781.00
2023-05-05T06:32:13.841Z,849.00
2023-05-05T06:33:14.354Z,939.00
2023-05-05T06:34:13.846Z,995.00
2023-05-05T06:35:13.879Z,1014.00
2023-05-05T06:36:13.844Z,1073.00
2023-05-05T06:37:13.808Z,1128.00
2023-05-05T06:38:13.802Z,1161.00
2023-05-05T06:39:15.935Z,1197.00
2023-05-05T06:40:13.782Z,1228.00
2023-05-05T06:41:13.829Z,1254.00
2023-05-05T06:42:13.767Z,1280.00
2023-05-05T06:43:13.807Z,1337.00
2023-05-05T06:44:13.860Z,1384.00
2023-05-05T06:45:13.880Z,1435.00
2023-05-05T06:46:14.800Z,1469.00
2023-05-05T06:47:13.958Z,1512.00
2023-05-05T06:48:13.992Z,1560.00
2023-05-05T06:49:14.032Z,1573.00
2023-05-05T06:50:14.076Z,1622.00
2023-05-05T06:51:14.116Z,1638.00
2023-05-05T06:52:14.143Z,1702.00
2023-05-05T06:53:14.125Z,1705.00
2023-05-05T06:54:14.162Z,1764.00
2023-05-05T06:55:14.182Z,1778.00
2023-05-05T06:56:14.189Z,1820.00
2023-05-05T06:57:14.199Z,1843.00
2023-05-05T06:58:14.225Z,1902.00
2023-05-05T06:59:14.275Z,1924.00
2023-05-05T07:00:14.210Z,1950.00
2023-05-05T07:01:14.248Z,1985.00
2023-05-05T07:02:14.206Z,2043.00
2023-05-05T07:03:15.006Z,2088.00
2023-05-05T07:04:14.461Z,2120.00
2023-05-05T07:05:14.200Z,2160.00
2023-05-05T07:06:14.193Z,2187.00
2023-05-05T07:07:14.187Z,2232.00
2023-05-05T07:08:14.155Z,2272.00
2023-05-05T07:09:15.701Z,2290.00
2023-05-05T07:10:14.137Z,2336.00
2023-05-05T07:11:14.715Z,2351.00
2023-05-05T07:12:14.063Z,2443.00
2023-05-05T07:13:14.073Z,2480.00
2023-05-05T07:14:14.008Z,2487.00
2023-05-05T07:15:26.756Z,2515.00
2023-05-05T07:16:14.959Z,2521.00
2023-05-05T07:17:13.926Z,2538.00
2023-05-05T07:18:13.915Z,2573.00
2023-05-05T07:19:13.845Z,2595.00
2023-05-05T07:20:13.926Z,2604.00
2023-05-05T07:21:13.758Z,2561.00
2023-05-05T07:22:13.738Z,2493.00
2023-05-05T07:23:13.713Z,2513.00
2023-05-05T07:24:13.679Z,2545.00
2023-05-05T07:25:13.657Z,2560.00
2023-05-05T07:26:13.625Z,2596.00
2023-05-05T07:27:13.590Z,2612.00
2023-05-05T07:28:13.573Z,2613.00
2023-05-05T07:29:13.969Z,2649.00
2023-05-05T07:30:16.540Z,2681.00
2023-05-05T07:31:14.541Z,2683.00
2023-05-05T07:32:13.482Z,2689.00
2023-05-05T07:33:13.422Z,2712.00
2023-05-05T07:34:13.385Z,2756.00
2023-05-05T07:35:13.355Z,2848.00
2023-05-05T07:36:13.314Z,2891.00
2023-05-05T07:37:13.278Z,2919.00
2023-05-05T07:38:13.240Z,2916.00
2023-05-05T07:39:13.204Z,2931.00
2023-05-05T07:40:13.194Z,2965.00
2023-05-05T07:41:13.129Z,2964.00
2023-05-05T07:42:13.098Z,2996.00
2023-05-05T07:43:13.048Z,3015.00
2023-05-05T07:44:14.021Z,3017.00
2023-05-05T07:45:12.982Z,3026.00
2023-05-05T07:46:12.987Z,3048.00
2023-05-05T07:47:12.958Z,3083.00
2023-05-05T07:48:12.884Z,3141.00
2023-05-05T07:49:12.807Z,3161.00
2023-05-05T07:50:12.777Z,3170.00
2023-05-05T07:51:12.725Z,3195.00
2023-05-05T07:52:12.749Z,3216.00
2023-05-05T07:53:14.897Z,3235.00
2023-05-05T07:54:12.827Z,3244.00
2023-05-05T07:55:12.844Z,3264.00
2023-05-05T07:56:12.869Z,3305.00
2023-05-05T07:57:12.886Z,3334.00
2023-05-05T07:58:13.894Z,3364.00
2023-05-05T07:59:12.979Z,3384.00
2023-05-05T08:00:13.822Z,3409.00
2023-05-05T08:01:13.897Z,3426.00
2023-05-05T08:02:13.826Z,3476.00
2023-05-05T08:03:13.161Z,3495.00
2023-05-05T08:04:13.061Z,3482.00
2023-05-05T08:05:13.014Z,3505.00
2023-05-05T08:06:14.010Z,3522.00
2023-05-05T08:07:13.012Z,3552.00
2023-05-05T08:08:13.045Z,3578.00
2023-05-05T08:09:13.042Z,3645.00
2023-05-05T08:10:13.097Z,3635.00
2023-05-05T08:11:13.052Z,3640.00
2023-05-05T08:12:14.021Z,3641.00
2023-05-05T08:13:13.029Z,3643.00
2023-05-05T08:14:12.925Z,3603.00
2023-05-05T08:15:12.894Z,3608.00
2023-05-05T08:16:12.888Z,3408.00
2023-05-05T08:17:12.784Z,3284.00
2023-05-05T08:18:12.738Z,3163.00
2023-05-05T08:19:27.722Z,3102.00
2023-05-05T08:20:13.653Z,3103.00
2023-05-05T08:21:12.609Z,3087.00
2023-05-05T08:22:12.569Z,3078.00
2023-05-05T08:23:12.538Z,3068.00
2023-05-05T08:24:13.505Z,3071.00
2023-05-05T08:25:12.459Z,3066.00
2023-05-05T08:26:12.412Z,3059.00
2023-05-05T08:27:12.382Z,3051.00
2023-05-05T08:28:12.341Z,3035.00
2023-05-05T08:29:12.320Z,3017.00
2023-05-05T08:30:12.273Z,3028.00
2023-05-05T08:31:12.284Z,3021.00
2023-05-05T08:32:12.188Z,3004.00
2023-05-05T08:33:12.190Z,3023.00
2023-05-05T08:34:12.117Z,3001.00
2023-05-05T08:35:12.440Z,2979.00
2023-05-05T08:36:12.022Z,2990.00
2023-05-05T08:37:12.030Z,2981.00
2023-05-05T08:38:11.947Z,2971.00
2023-05-05T08:39:11.912Z,2954.00
2023-05-05T08:40:11.869Z,2938.00
2023-05-05T08:41:11.833Z,2939.00
2023-05-05T08:42:14.293Z,2949.00
2023-05-05T08:43:12.769Z,2950.00
2023-05-05T08:44:11.736Z,2950.00
2023-05-05T08:45:11.908Z,2952.00
2023-05-05T08:46:11.668Z,2951.00
2023-05-05T08:47:11.630Z,2940.00
2023-05-05T08:48:11.652Z,2927.00
2023-05-05T08:49:11.919Z,2937.00
2023-05-05T08:50:11.546Z,2934.00
2023-05-05T08:51:11.738Z,2922.00
2023-05-05T08:52:11.464Z,2932.00
2023-05-05T08:53:11.428Z,2925.00
2023-05-05T08:54:11.374Z,2925.00
2023-05-05T08:55:11.346Z,2929.00
2023-05-05T08:56:11.324Z,2935.00
2023-05-05T08:57:11.290Z,2922.00
2023-05-05T08:58:11.250Z,2920.00
2023-05-05T08:59:11.255Z,2915.00
2023-05-05T09:00:11.185Z,2912.00
2023-05-05T09:01:11.217Z,2910.00
2023-05-05T09:02:11.179Z,2913.00
2023-05-05T09:03:11.207Z,2914.00
2023-05-05T09:04:11.101Z,2907.00
2023-05-05T09:05:11.202Z,2905.00
2023-05-05T09:06:11.922Z,2899.00
2023-05-05T09:07:11.050Z,2889.00
2023-05-05T09:08:10.968Z,2888.00
2023-05-05T09:09:10.944Z,2891.00
2023-05-05T09:10:10.932Z,2878.00
2023-05-05T09:11:10.937Z,2874.00
2023-05-05T09:12:10.901Z,2874.00
2023-05-05T09:13:10.986Z,2876.00
2023-05-05T09:14:10.865Z,2870.00
2023-05-05T09:15:10.942Z,2871.00
2023-05-05T09:16:11.943Z,2872.00
2023-05-05T09:17:10.854Z,2873.00
2023-05-05T09:18:11.006Z,2880.00
2023-05-05T09:19:10.743Z,2918.00
2023-05-05T09:20:10.724Z,2871.00
2023-05-05T09:21:10.661Z,2779.00
2023-05-05T09:22:10.632Z,2618.00
2023-05-05T09:23:10.686Z,2594.00
2023-05-05T09:24:10.563Z,2667.00
2023-05-05T09:25:10.645Z,2725.00
2023-05-05T09:26:10.514Z,2631.00
2023-05-05T09:27:10.474Z,2601.00
2023-05-05T09:28:10.455Z,2631.00
2023-05-05T09:29:10.430Z,2634.00
2023-05-05T09:30:10.403Z,2690.00
2023-05-05T09:31:12.004Z,2685.00
2023-05-05T09:32:10.304Z,2668.00
2023-05-05T09:33:10.295Z,2607.00
2023-05-05T09:34:12.060Z,2654.00
2023-05-05T09:35:10.254Z,2657.00
2023-05-05T09:36:10.124Z,2654.00
2023-05-05T09:37:10.090Z,2642.00
2023-05-05T09:38:10.053Z,2657.00
2023-05-05T09:39:10.279Z,2598.00
2023-05-05T09:40:09.974Z,2530.00
2023-05-05T09:41:09.950Z,2585.00
2023-05-05T09:42:09.890Z,2454.00
2023-05-05T09:43:09.861Z,2490.00
2023-05-05T09:44:09.833Z,2552.00
2023-05-05T09:45:10.012Z,2545.00
2023-05-05T09:46:09.877Z,2535.00
2023-05-05T09:47:22.341Z,2546.00
2023-05-05T09:48:10.969Z,2549.00
2023-05-05T09:49:09.991Z,2556.00
2023-05-05T09:50:10.107Z,2572.00
2023-05-05T09:51:10.005Z,2577.00
2023-05-05T09:52:10.024Z,2581.00
2023-05-05T09:53:10.056Z,2621.00
2023-05-05T09:54:10.081Z,2598.00
2023-05-05T09:55:10.169Z,2600.00
2023-05-05T09:56:10.007Z,2600.00
2023-05-05T09:57:09.964Z,2600.00
2023-05-05T09:58:10.006Z,2604.00
2023-05-05T09:59:09.878Z,2599.00
2023-05-05T10:00:10.025Z,2604.00
2023-05-05T10:01:10.416Z,2616.00
2023-05-05T10:02:10.463Z,2637.00
2023-05-05T10:03:11.020Z,2612.00
2023-05-05T10:04:10.433Z,2599.00
2023-05-05T10:05:10.114Z,2606.00
2023-05-05T10:06:09.840Z,2607.00
2023-05-05T10:07:09.777Z,2622.00
2023-05-05T10:08:09.762Z,2601.00
2023-05-05T10:09:09.695Z,2602.00
2023-05-05T10:10:10.008Z,2613.00
2023-05-05T10:11:09.680Z,2602.00
2023-05-05T10:12:09.562Z,2612.00
2023-05-05T10:13:09.634Z,2637.00
2023-05-05T10:14:10.365Z,2671.00
2023-05-05T10:15:09.550Z,2696.00
2023-05-05T10:16:09.442Z,2712.00
2023-05-05T10:17:09.351Z,2716.00
2023-05-05T10:18:09.337Z,2738.00
2023-05-05T10:19:09.286Z,2768.00
2023-05-05T10:20:09.443Z,2776.00
2023-05-05T10:21:09.325Z,2796.00
2023-05-05T10:22:09.318Z,2838.00
2023-05-05T10:23:09.363Z,2851.00
2023-05-05T10:24:09.335Z,2878.00
2023-05-05T10:25:09.957Z,2899.00
2023-05-05T10:26:09.341Z,2917.00
2023-05-05T10:27:10.587Z,2935.00
2023-05-05T10:28:09.301Z,2957.00
2023-05-05T10:29:09.258Z,3001.00
2023-05-05T10:30:09.481Z,2971.00
2023-05-05T10:31:23.906Z,3011.00
2023-05-05T10:32:33.474Z,3013.00
2023-05-05T10:33:30.434Z,3014.00
2023-05-05T10:34:10.322Z,3016.00
2023-05-05T10:35:08.980Z,3017.00
2023-05-05T10:36:11.461Z,3033.00
2023-05-05T10:37:10.059Z,3070.00
2023-05-05T10:38:08.974Z,3018.00
2023-05-05T10:39:08.917Z,3036.00
2023-05-05T10:40:09.114Z,3076.00
2023-05-05T10:41:08.835Z,3122.00
2023-05-05T10:42:08.771Z,3187.00
2023-05-05T10:43:09.591Z,3217.00
2023-05-05T10:44:08.675Z,3222.00
2023-05-05T10:45:08.658Z,3248.00
2023-05-05T10:46:13.574Z,3270.00
2023-05-05T10:47:08.544Z,3273.00
2023-05-05T10:48:10.158Z,3281.00
2023-05-05T10:49:09.684Z,3296.00
2023-05-05T10:50:08.634Z,3309.00
2023-05-05T10:51:08.364Z,3358.00
2023-05-05T10:52:08.342Z,3361.00
2023-05-05T10:53:08.264Z,3362.00
2023-05-05T10:54:08.235Z,3364.00
2023-05-05T10:55:08.157Z,3370.00
2023-05-05T10:56:08.110Z,3378.00
2023-05-05T10:57:08.082Z,3404.00
2023-05-05T10:58:08.009Z,3430.00
2023-05-05T10:59:08.026Z,3423.00
2023-05-05T11:00:08.256Z,3434.00
2023-05-05T11:01:07.933Z,3422.00
2023-05-05T11:02:07.833Z,3415.00
2023-05-05T11:03:07.851Z,3374.00
2023-05-05T11:04:07.805Z,3337.00
2023-05-05T11:05:07.660Z,3355.00
2023-05-05T11:06:07.654Z,3351.00
2023-05-05T11:07:07.549Z,3339.00
2023-05-05T11:08:07.524Z,3340.00
2023-05-05T11:09:07.469Z,3339.00
2023-05-05T11:10:07.741Z,3332.00
2023-05-05T11:11:07.376Z,3335.00
2023-05-05T11:12:07.320Z,3327.00
2023-05-05T11:13:07.401Z,3335.00
2023-05-05T11:14:07.234Z,3332.00
2023-05-05T11:15:07.334Z,3314.00
2023-05-05T11:16:07.179Z,3316.00
2023-05-05T11:17:07.105Z,3312.00
2023-05-05T11:18:08.217Z,3304.00
2023-05-05T11:19:07.036Z,3301.00
2023-05-05T11:20:07.055Z,3298.00
2023-05-05T11:21:06.964Z,3313.00
2023-05-05T11:22:07.558Z,3296.00
2023-05-05T11:23:07.030Z,3277.00
2023-05-05T11:24:06.954Z,3298.00
2023-05-05T11:25:06.961Z,3285.00
2023-05-05T11:26:06.954Z,3280.00
2023-05-05T11:27:06.958Z,3275.00
2023-05-05T11:28:06.991Z,3281.00
2023-05-05T11:29:07.124Z,3272.00
2023-05-05T11:30:07.193Z,3261.00
2023-05-05T11:31:07.089Z,3258.00
2023-05-05T11:32:06.975Z,3241.00
2023-05-05T11:33:07.059Z,3248.00
2023-05-05T11:34:06.972Z,3239.00
2023-05-05T11:35:07.485Z,3246.00
2023-05-05T11:36:07.280Z,3221.00
2023-05-05T11:37:06.957Z,3223.00
2023-05-05T11:38:06.968Z,3228.00
2023-05-05T11:39:06.968Z,3217.00
2023-05-05T11:40:07.253Z,3207.00
2023-05-05T11:41:06.964Z,3218.00
2023-05-05T11:42:10.419Z,3216.00
2023-05-05T11:43:06.933Z,3217.00
2023-05-05T11:44:06.905Z,3217.00
2023-05-05T11:45:06.861Z,3217.00
2023-05-05T11:46:06.902Z,3201.00
2023-05-05T11:47:06.863Z,3197.00
2023-05-05T11:49:06.733Z,3197.00
2023-05-05T11:50:06.882Z,3177.00
2023-05-05T11:51:06.623Z,3194.00
2023-05-05T11:52:06.580Z,3190.00
2023-05-05T11:53:06.545Z,3178.00
2023-05-05T11:54:06.510Z,3170.00
2023-05-05T11:55:06.529Z,3170.00
2023-05-05T11:56:06.432Z,3169.00
2023-05-05T11:57:06.395Z,3165.00
2023-05-05T11:58:06.354Z,3156.00
2023-05-05T11:59:06.339Z,3139.00
2023-05-05T12:00:06.596Z,3147.00
2023-05-05T12:01:06.227Z,3139.00
2023-05-05T12:02:06.192Z,3133.00
2023-05-05T12:03:06.314Z,3151.00
2023-05-05T12:04:06.177Z,3138.00
2023-05-05T12:05:06.075Z,3137.00
2023-05-05T12:06:06.025Z,3135.00
2023-05-05T12:07:05.984Z,3128.00
2023-05-05T12:08:05.951Z,3118.00
2023-05-05T12:09:05.912Z,3118.00
2023-05-05T12:10:06.006Z,3111.00
2023-05-05T12:11:05.817Z,3115.00
2023-05-05T12:12:05.798Z,3105.00
2023-05-05T12:13:05.832Z,3101.00